sensor_id;sensor_type;location;lat;lon;timestamp;pressure;altitude;pressure_sealevel;temperature
76394;BMP180;65216;51.090;-115.352;2023-05-29T00:02:18;86311.40;;;23.10
76394;BMP180;65216;51.090;-115.352;2023-05-29T00:04:46;86312.40;;;23.10
76394;BMP180;65216;51.090;-115.352;2023-05-29T00:07:13;86314.60;;;23.10
76394;BMP180;65216;51.090;-115.352;2023-05-29T00:09:40;86307.00;;;23.10
76394;BMP180;65216;51.090;-115.352;2023-05-29T00:12:10;86311.60;;;23.10
76394;BMP180;65216;51.090;-115.352;2023-05-29T00:14:38;86309.00;;;23.10
76394;BMP180;65216;51.090;-115.352;2023-05-29T00:17:05;86301.60;;;23.10
76394;BMP180;65216;51.090;-115.352;2023-05-29T00:19:32;86302.60;;;23.10
76394;BMP180;65216;51.090;-115.352;2023-05-29T00:22:00;86303.40;;;23.10
76394;BMP180;65216;51.090;-115.352;2023-05-29T00:24:32;86301.20;;;23.10
76394;BMP180;65216;51.090;-115.352;2023-05-29T00:26:59;86301.00;;;23.10
76394;BMP180;65216;51.090;-115.352;2023-05-29T00:29:27;86302.80;;;23.10
76394;BMP180;65216;51.090;-115.352;2023-05-29T00:31:55;86297.80;;;23.10
76394;BMP180;65216;51.090;-115.352;2023-05-29T00:34:23;86300.20;;;23.10
76394;BMP180;65216;51.090;-115.352;2023-05-29T00:36:51;86301.00;;;23.10
76394;BMP180;65216;51.090;-115.352;2023-05-29T00:39:22;86296.60;;;23.10
76394;BMP180;65216;51.090;-115.352;2023-05-29T00:41:54;86286.60;;;23.02
76394;BMP180;65216;51.090;-115.352;2023-05-29T00:44:22;86287.60;;;23.00
76394;BMP180;65216;51.090;-115.352;2023-05-29T00:46:55;86297.60;;;23.00
76394;BMP180;65216;51.090;-115.352;2023-05-29T00:49:23;86289.00;;;23.00
76394;BMP180;65216;51.090;-115.352;2023-05-29T00:51:53;86278.60;;;23.00
76394;BMP180;65216;51.090;-115.352;2023-05-29T00:54:26;86279.80;;;23.00
76394;BMP180;65216;51.090;-115.352;2023-05-29T00:56:57;86285.20;;;23.00
76394;BMP180;65216;51.090;-115.352;2023-05-29T00:59:31;86277.60;;;23.00
76394;BMP180;65216;51.090;-115.352;2023-05-29T01:02:00;86276.40;;;23.00
76394;BMP180;65216;51.090;-115.352;2023-05-29T01:04:28;86279.20;;;23.00
76394;BMP180;65216;51.090;-115.352;2023-05-29T01:06:55;86280.40;;;23.00
76394;BMP180;65216;51.090;-115.352;2023-05-29T01:09:23;86280.00;;;23.00
76394;BMP180;65216;51.090;-115.352;2023-05-29T01:14:53;86287.40;;;23.00
76394;BMP180;65216;51.090;-115.352;2023-05-29T01:21:06;86291.20;;;23.00
76394;BMP180;65216;51.090;-115.352;2023-05-29T01:24:25;86285.60;;;22.94
76394;BMP180;65216;51.090;-115.352;2023-05-29T01:27:00;86285.80;;;22.90
76394;BMP180;65216;51.090;-115.352;2023-05-29T01:29:34;86296.00;;;22.90
76394;BMP180;65216;51.090;-115.352;2023-05-29T01:32:02;86291.60;;;22.90
76394;BMP180;65216;51.090;-115.352;2023-05-29T01:34:30;86286.80;;;22.90
76394;BMP180;65216;51.090;-115.352;2023-05-29T01:36:59;86297.40;;;22.90
76394;BMP180;65216;51.090;-115.352;2023-05-29T01:39:27;86295.40;;;22.90
76394;BMP180;65216;51.090;-115.352;2023-05-29T01:41:55;86299.60;;;22.90
76394;BMP180;65216;51.090;-115.352;2023-05-29T01:44:23;86301.40;;;22.90
76394;BMP180;65216;51.090;-115.352;2023-05-29T01:46:52;86300.00;;;22.90
76394;BMP180;65216;51.090;-115.352;2023-05-29T01:49:20;86298.00;;;22.90
76394;BMP180;65216;51.090;-115.352;2023-05-29T01:51:50;86303.40;;;22.90
76394;BMP180;65216;51.090;-115.352;2023-05-29T01:54:17;86306.20;;;22.90
76394;BMP180;65216;51.090;-115.352;2023-05-29T01:56:45;86314.40;;;22.90
76394;BMP180;65216;51.090;-115.352;2023-05-29T01:59:13;86305.00;;;22.90
76394;BMP180;65216;51.090;-115.352;2023-05-29T02:01:41;86310.00;;;22.90
76394;BMP180;65216;51.090;-115.352;2023-05-29T02:04:08;86312.80;;;22.90
76394;BMP180;65216;51.090;-115.352;2023-05-29T02:06:35;86307.60;;;22.90
76394;BMP180;65216;51.090;-115.352;2023-05-29T02:09:03;86324.80;;;22.90
76394;BMP180;65216;51.090;-115.352;2023-05-29T02:11:30;86322.80;;;22.90
76394;BMP180;65216;51.090;-115.352;2023-05-29T02:14:00;86328.40;;;22.90
76394;BMP180;65216;51.090;-115.352;2023-05-29T02:16:30;86325.20;;;22.90
76394;BMP180;65216;51.090;-115.352;2023-05-29T02:19:01;86316.60;;;22.90
76394;BMP180;65216;51.090;-115.352;2023-05-29T02:21:28;86328.00;;;22.90
76394;BMP180;65216;51.090;-115.352;2023-05-29T02:23:55;86329.80;;;22.90
76394;BMP180;65216;51.090;-115.352;2023-05-29T02:26:22;86337.80;;;22.90
76394;BMP180;65216;51.090;-115.352;2023-05-29T02:28:49;86338.80;;;22.90
76394;BMP180;65216;51.090;-115.352;2023-05-29T02:31:16;86335.20;;;22.90
76394;BMP180;65216;51.090;-115.352;2023-05-29T02:33:46;86336.80;;;22.90
76394;BMP180;65216;51.090;-115.352;2023-05-29T02:36:16;86341.80;;;22.90
76394;BMP180;65216;51.090;-115.352;2023-05-29T02:38:44;86337.80;;;22.82
76394;BMP180;65216;51.090;-115.352;2023-05-29T02:41:11;86345.40;;;22.80
76394;BMP180;65216;51.090;-115.352;2023-05-29T02:43:40;86338.80;;;22.80
76394;BMP180;65216;51.090;-115.352;2023-05-29T02:46:07;86337.00;;;22.80
76394;BMP180;65216;51.090;-115.352;2023-05-29T02:48:34;86353.20;;;22.80
76394;BMP180;65216;51.090;-115.352;2023-05-29T02:51:03;86351.20;;;22.80
76394;BMP180;65216;51.090;-115.352;2023-05-29T02:53:31;86344.20;;;22.80
76394;BMP180;65216;51.090;-115.352;2023-05-29T02:55:58;86353.80;;;22.70
76394;BMP180;65216;51.090;-115.352;2023-05-29T02:58:25;86349.80;;;22.70
76394;BMP180;65216;51.090;-115.352;2023-05-29T03:00:53;86364.00;;;22.70
76394;BMP180;65216;51.090;-115.352;2023-05-29T03:03:21;86361.60;;;22.70
76394;BMP180;65216;51.090;-115.352;2023-05-29T03:05:50;86360.80;;;22.70
76394;BMP180;65216;51.090;-115.352;2023-05-29T03:08:20;86353.20;;;22.60
76394;BMP180;65216;51.090;-115.352;2023-05-29T03:10:47;86370.40;;;22.60
76394;BMP180;65216;51.090;-115.352;2023-05-29T03:13:14;86367.80;;;22.60
76394;BMP180;65216;51.090;-115.352;2023-05-29T03:15:47;86371.60;;;22.60
76394;BMP180;65216;51.090;-115.352;2023-05-29T03:18:14;86369.80;;;22.60
76394;BMP180;65216;51.090;-115.352;2023-05-29T03:20:41;86376.60;;;22.60
76394;BMP180;65216;51.090;-115.352;2023-05-29T03:23:08;86377.00;;;22.52
76394;BMP180;65216;51.090;-115.352;2023-05-29T03:25:36;86382.20;;;22.50
76394;BMP180;65216;51.090;-115.352;2023-05-29T03:28:03;86387.80;;;22.50
76394;BMP180;65216;51.090;-115.352;2023-05-29T03:30:30;86400.40;;;22.50
76394;BMP180;65216;51.090;-115.352;2023-05-29T03:32:59;86403.20;;;22.50
76394;BMP180;65216;51.090;-115.352;2023-05-29T03:35:30;86404.40;;;22.50
76394;BMP180;65216;51.090;-115.352;2023-05-29T03:38:00;86409.40;;;22.50
76394;BMP180;65216;51.090;-115.352;2023-05-29T03:40:27;86418.00;;;22.50
76394;BMP180;65216;51.090;-115.352;2023-05-29T03:42:54;86416.60;;;22.42
76394;BMP180;65216;51.090;-115.352;2023-05-29T03:45:21;86419.00;;;22.40
76394;BMP180;65216;51.090;-115.352;2023-05-29T03:47:48;86429.40;;;22.40
76394;BMP180;65216;51.090;-115.352;2023-05-29T03:50:15;86427.00;;;22.40
76394;BMP180;65216;51.090;-115.352;2023-05-29T03:52:45;86432.00;;;22.40
76394;BMP180;65216;51.090;-115.352;2023-05-29T03:55:13;86435.40;;;22.40
76394;BMP180;65216;51.090;-115.352;2023-05-29T03:57:41;86437.00;;;22.40
76394;BMP180;65216;51.090;-115.352;2023-05-29T04:00:09;86438.60;;;22.40
76394;BMP180;65216;51.090;-115.352;2023-05-29T04:02:41;86443.20;;;22.36
76394;BMP180;65216;51.090;-115.352;2023-05-29T04:05:11;86450.60;;;22.30
76394;BMP180;65216;51.090;-115.352;2023-05-29T04:07:41;86453.80;;;22.30
76394;BMP180;65216;51.090;-115.352;2023-05-29T04:10:09;86454.00;;;22.30
76394;BMP180;65216;51.090;-115.352;2023-05-29T04:12:36;86457.60;;;22.30
76394;BMP180;65216;51.090;-115.352;2023-05-29T04:15:04;86459.00;;;22.30
76394;BMP180;65216;51.090;-115.352;2023-05-29T04:17:33;86464.00;;;22.30
76394;BMP180;65216;51.090;-115.352;2023-05-29T04:20:00;86467.60;;;22.30
76394;BMP180;65216;51.090;-115.352;2023-05-29T04:22:37;86464.20;;;22.30
76394;BMP180;65216;51.090;-115.352;2023-05-29T04:25:05;86465.80;;;22.20
76394;BMP180;65216;51.090;-115.352;2023-05-29T04:27:32;86467.40;;;22.20
76394;BMP180;65216;51.090;-115.352;2023-05-29T04:30:08;86469.20;;;22.20
76394;BMP180;65216;51.090;-115.352;2023-05-29T04:32:35;86476.80;;;22.20
76394;BMP180;65216;51.090;-115.352;2023-05-29T04:35:07;86477.60;;;22.20
76394;BMP180;65216;51.090;-115.352;2023-05-29T04:37:34;86475.40;;;22.20
76394;BMP180;65216;51.090;-115.352;2023-05-29T04:40:07;86478.60;;;22.20
76394;BMP180;65216;51.090;-115.352;2023-05-29T04:42:38;86480.20;;;22.20
76394;BMP180;65216;51.090;-115.352;2023-05-29T04:45:08;86484.80;;;22.18
76394;BMP180;65216;51.090;-115.352;2023-05-29T04:47:37;86485.00;;;22.12
76394;BMP180;65216;51.090;-115.352;2023-05-29T04:50:17;86491.60;;;22.10
76394;BMP180;65216;51.090;-115.352;2023-05-29T04:52:44;86496.20;;;22.10
76394;BMP180;65216;51.090;-115.352;2023-05-29T04:55:12;86491.00;;;22.10
76394;BMP180;65216;51.090;-115.352;2023-05-29T04:57:42;86492.00;;;22.10
76394;BMP180;65216;51.090;-115.352;2023-05-29T05:00:10;86501.80;;;22.10
76394;BMP180;65216;51.090;-115.352;2023-05-29T05:02:42;86500.40;;;22.10
76394;BMP180;65216;51.090;-115.352;2023-05-29T05:05:10;86498.60;;;22.10
76394;BMP180;65216;51.090;-115.352;2023-05-29T05:07:38;86506.20;;;22.10
76394;BMP180;65216;51.090;-115.352;2023-05-29T05:10:05;86510.60;;;22.10
76394;BMP180;65216;51.090;-115.352;2023-05-29T05:12:33;86516.60;;;22.10
76394;BMP180;65216;51.090;-115.352;2023-05-29T05:15:00;86518.60;;;22.10
76394;BMP180;65216;51.090;-115.352;2023-05-29T05:17:26;86528.60;;;22.10
76394;BMP180;65216;51.090;-115.352;2023-05-29T05:19:54;86529.00;;;22.10
76394;BMP180;65216;51.090;-115.352;2023-05-29T05:22:24;86531.00;;;22.10
76394;BMP180;65216;51.090;-115.352;2023-05-29T05:24:51;86532.80;;;22.10
76394;BMP180;65216;51.090;-115.352;2023-05-29T05:27:19;86530.00;;;22.04
76394;BMP180;65216;51.090;-115.352;2023-05-29T05:29:46;86528.60;;;22.00
76394;BMP180;65216;51.090;-115.352;2023-05-29T05:32:14;86529.00;;;22.00
76394;BMP180;65216;51.090;-115.352;2023-05-29T05:34:44;86531.80;;;22.00
76394;BMP180;65216;51.090;-115.352;2023-05-29T05:37:14;86528.20;;;22.00
76394;BMP180;65216;51.090;-115.352;2023-05-29T05:39:41;86534.00;;;22.00
76394;BMP180;65216;51.090;-115.352;2023-05-29T05:42:08;86537.80;;;22.00
76394;BMP180;65216;51.090;-115.352;2023-05-29T05:44:35;86543.00;;;22.00
76394;BMP180;65216;51.090;-115.352;2023-05-29T05:47:02;86539.40;;;22.00
76394;BMP180;65216;51.090;-115.352;2023-05-29T05:49:28;86544.40;;;22.00
76394;BMP180;65216;51.090;-115.352;2023-05-29T05:51:55;86544.20;;;22.00
76394;BMP180;65216;51.090;-115.352;2023-05-29T05:54:22;86545.20;;;22.00
76394;BMP180;65216;51.090;-115.352;2023-05-29T05:56:49;86547.40;;;22.00
76394;BMP180;65216;51.090;-115.352;2023-05-29T05:59:16;86552.20;;;22.00
76394;BMP180;65216;51.090;-115.352;2023-05-29T06:01:43;86555.20;;;22.00
76394;BMP180;65216;51.090;-115.352;2023-05-29T06:04:10;86552.80;;;21.94
76394;BMP180;65216;51.090;-115.352;2023-05-29T06:06:42;86552.20;;;21.94
76394;BMP180;65216;51.090;-115.352;2023-05-29T06:09:10;86551.60;;;21.90
76394;BMP180;65216;51.090;-115.352;2023-05-29T06:11:38;86553.80;;;21.90
76394;BMP180;65216;51.090;-115.352;2023-05-29T06:14:05;86558.00;;;21.90
76394;BMP180;65216;51.090;-115.352;2023-05-29T06:16:32;86559.20;;;21.90
76394;BMP180;65216;51.090;-115.352;2023-05-29T06:18:59;86560.80;;;21.90
76394;BMP180;65216;51.090;-115.352;2023-05-29T06:21:26;86560.40;;;21.90
76394;BMP180;65216;51.090;-115.352;2023-05-29T06:23:53;86559.00;;;21.90
76394;BMP180;65216;51.090;-115.352;2023-05-29T06:26:20;86555.20;;;21.90
76394;BMP180;65216;51.090;-115.352;2023-05-29T06:28:47;86553.80;;;21.90
76394;BMP180;65216;51.090;-115.352;2023-05-29T06:31:14;86556.20;;;21.90
76394;BMP180;65216;51.090;-115.352;2023-05-29T06:33:42;86555.80;;;21.90
76394;BMP180;65216;51.090;-115.352;2023-05-29T06:36:09;86559.00;;;21.90
76394;BMP180;65216;51.090;-115.352;2023-05-29T06:38:37;86558.00;;;21.90
76394;BMP180;65216;51.090;-115.352;2023-05-29T06:41:04;86558.00;;;21.90
76394;BMP180;65216;51.090;-115.352;2023-05-29T06:43:34;86555.40;;;21.90
76394;BMP180;65216;51.090;-115.352;2023-05-29T06:46:01;86555.00;;;21.90
76394;BMP180;65216;51.090;-115.352;2023-05-29T06:48:28;86555.00;;;21.90
76394;BMP180;65216;51.090;-115.352;2023-05-29T06:50:55;86550.20;;;21.90
76394;BMP180;65216;51.090;-115.352;2023-05-29T06:53:22;86547.80;;;21.88
76394;BMP180;65216;51.090;-115.352;2023-05-29T06:55:49;86556.40;;;21.84
76394;BMP180;65216;51.090;-115.352;2023-05-29T06:58:16;86551.60;;;21.80
76394;BMP180;65216;51.090;-115.352;2023-05-29T07:00:43;86551.00;;;21.82
76394;BMP180;65216;51.090;-115.352;2023-05-29T07:03:10;86551.00;;;21.80
76394;BMP180;65216;51.090;-115.352;2023-05-29T07:05:37;86546.00;;;21.80
76394;BMP180;65216;51.090;-115.352;2023-05-29T07:08:04;86550.00;;;21.80
76394;BMP180;65216;51.090;-115.352;2023-05-29T07:10:33;86551.00;;;21.80
76394;BMP180;65216;51.090;-115.352;2023-05-29T07:13:00;86554.20;;;21.80
76394;BMP180;65216;51.090;-115.352;2023-05-29T07:15:27;86554.80;;;21.80
76394;BMP180;65216;51.090;-115.352;2023-05-29T07:17:54;86553.80;;;21.80
76394;BMP180;65216;51.090;-115.352;2023-05-29T07:20:24;86556.00;;;21.80
76394;BMP180;65216;51.090;-115.352;2023-05-29T07:22:51;86549.40;;;21.80
76394;BMP180;65216;51.090;-115.352;2023-05-29T07:25:18;86551.00;;;21.80
76394;BMP180;65216;51.090;-115.352;2023-05-29T07:27:48;86553.60;;;21.80
76394;BMP180;65216;51.090;-115.352;2023-05-29T07:30:18;86551.00;;;21.80
76394;BMP180;65216;51.090;-115.352;2023-05-29T07:32:45;86548.80;;;21.80
76394;BMP180;65216;51.090;-115.352;2023-05-29T07:35:12;86550.20;;;21.76
76394;BMP180;65216;51.090;-115.352;2023-05-29T07:37:38;86551.20;;;21.76
76394;BMP180;65216;51.090;-115.352;2023-05-29T07:40:06;86551.80;;;21.72
76394;BMP180;65216;51.090;-115.352;2023-05-29T07:42:34;86554.20;;;21.70
76394;BMP180;65216;51.090;-115.352;2023-05-29T07:45:01;86554.20;;;21.70
76394;BMP180;65216;51.090;-115.352;2023-05-29T07:47:33;86552.40;;;21.70
76394;BMP180;65216;51.090;-115.352;2023-05-29T07:50:00;86552.40;;;21.70
76394;BMP180;65216;51.090;-115.352;2023-05-29T07:52:27;86549.60;;;21.70
76394;BMP180;65216;51.090;-115.352;2023-05-29T07:54:54;86552.60;;;21.70
76394;BMP180;65216;51.090;-115.352;2023-05-29T07:57:21;86555.60;;;21.70
76394;BMP180;65216;51.090;-115.352;2023-05-29T07:59:48;86560.00;;;21.70
76394;BMP180;65216;51.090;-115.352;2023-05-29T08:02:16;86556.40;;;21.70
76394;BMP180;65216;51.090;-115.352;2023-05-29T08:04:47;86556.80;;;21.70
76394;BMP180;65216;51.090;-115.352;2023-05-29T08:07:14;86551.00;;;21.70
76394;BMP180;65216;51.090;-115.352;2023-05-29T08:09:41;86551.80;;;21.70
76394;BMP180;65216;51.090;-115.352;2023-05-29T08:12:08;86552.80;;;21.70
76394;BMP180;65216;51.090;-115.352;2023-05-29T08:14:38;86559.00;;;21.70
76394;BMP180;65216;51.090;-115.352;2023-05-29T08:17:05;86560.40;;;21.70
76394;BMP180;65216;51.090;-115.352;2023-05-29T08:19:33;86562.80;;;21.70
76394;BMP180;65216;51.090;-115.352;2023-05-29T08:22:00;86559.80;;;21.70
76394;BMP180;65216;51.090;-115.352;2023-05-29T08:24:27;86556.20;;;21.70
76394;BMP180;65216;51.090;-115.352;2023-05-29T08:26:54;86562.20;;;21.70
76394;BMP180;65216;51.090;-115.352;2023-05-29T08:29:21;86559.00;;;21.66
76394;BMP180;65216;51.090;-115.352;2023-05-29T08:31:48;86562.20;;;21.68
76394;BMP180;65216;51.090;-115.352;2023-05-29T08:34:15;86566.20;;;21.64
76394;BMP180;65216;51.090;-115.352;2023-05-29T08:36:42;86561.00;;;21.60
76394;BMP180;65216;51.090;-115.352;2023-05-29T08:39:12;86570.20;;;21.60
76394;BMP180;65216;51.090;-115.352;2023-05-29T08:44:33;86557.20;;;21.60
76394;BMP180;65216;51.090;-115.352;2023-05-29T08:47:05;86561.80;;;21.60
76394;BMP180;65216;51.090;-115.352;2023-05-29T08:49:42;86565.20;;;21.60
76394;BMP180;65216;51.090;-115.352;2023-05-29T08:52:16;86565.20;;;21.60
76394;BMP180;65216;51.090;-115.352;2023-05-29T08:54:44;86559.40;;;21.60
76394;BMP180;65216;51.090;-115.352;2023-05-29T08:57:13;86558.60;;;21.60
76394;BMP180;65216;51.090;-115.352;2023-05-29T08:59:44;86556.60;;;21.60
76394;BMP180;65216;51.090;-115.352;2023-05-29T09:02:12;86556.80;;;21.60
76394;BMP180;65216;51.090;-115.352;2023-05-29T09:04:41;86554.20;;;21.60
76394;BMP180;65216;51.090;-115.352;2023-05-29T09:07:12;86559.60;;;21.60
76394;BMP180;65216;51.090;-115.352;2023-05-29T09:09:40;86557.20;;;21.60
76394;BMP180;65216;51.090;-115.352;2023-05-29T09:12:09;86558.80;;;21.60
76394;BMP180;65216;51.090;-115.352;2023-05-29T09:14:42;86556.20;;;21.60
76394;BMP180;65216;51.090;-115.352;2023-05-29T09:17:14;86558.20;;;21.60
76394;BMP180;65216;51.090;-115.352;2023-05-29T09:19:41;86555.60;;;21.60
76394;BMP180;65216;51.090;-115.352;2023-05-29T09:22:13;86552.80;;;21.58
76394;BMP180;65216;51.090;-115.352;2023-05-29T09:24:47;86557.00;;;21.58
76394;BMP180;65216;51.090;-115.352;2023-05-29T09:27:15;86558.40;;;21.52
76394;BMP180;65216;51.090;-115.352;2023-05-29T09:29:45;86558.60;;;21.56
76394;BMP180;65216;51.090;-115.352;2023-05-29T09:32:15;86562.00;;;21.52
76394;BMP180;65216;51.090;-115.352;2023-05-29T09:34:44;86558.40;;;21.50
76394;BMP180;65216;51.090;-115.352;2023-05-29T09:37:13;86553.80;;;21.50
76394;BMP180;65216;51.090;-115.352;2023-05-29T09:39:51;86553.00;;;21.50
76394;BMP180;65216;51.090;-115.352;2023-05-29T09:42:18;86554.80;;;21.50
76394;BMP180;65216;51.090;-115.352;2023-05-29T09:44:50;86550.80;;;21.50
76394;BMP180;65216;51.090;-115.352;2023-05-29T09:47:24;86551.00;;;21.50
76394;BMP180;65216;51.090;-115.352;2023-05-29T09:49:51;86550.60;;;21.50
76394;BMP180;65216;51.090;-115.352;2023-05-29T09:52:22;86550.80;;;21.50
76394;BMP180;65216;51.090;-115.352;2023-05-29T09:54:50;86553.40;;;21.50
76394;BMP180;65216;51.090;-115.352;2023-05-29T09:57:21;86545.40;;;21.50
76394;BMP180;65216;51.090;-115.352;2023-05-29T09:59:52;86552.40;;;21.50
76394;BMP180;65216;51.090;-115.352;2023-05-29T10:02:19;86552.20;;;21.50
76394;BMP180;65216;51.090;-115.352;2023-05-29T10:04:49;86555.80;;;21.50
76394;BMP180;65216;51.090;-115.352;2023-05-29T10:07:26;86557.40;;;21.50
76394;BMP180;65216;51.090;-115.352;2023-05-29T10:10:06;86558.80;;;21.50
76394;BMP180;65216;51.090;-115.352;2023-05-29T10:12:38;86556.60;;;21.50
76394;BMP180;65216;51.090;-115.352;2023-05-29T10:15:12;86558.20;;;21.50
76394;BMP180;65216;51.090;-115.352;2023-05-29T10:20:28;86556.60;;;21.44
76394;BMP180;65216;51.090;-115.352;2023-05-29T10:23:02;86549.80;;;21.40
76394;BMP180;65216;51.090;-115.352;2023-05-29T10:25:33;86551.20;;;21.40
76394;BMP180;65216;51.090;-115.352;2023-05-29T10:28:01;86548.80;;;21.40
76394;BMP180;65216;51.090;-115.352;2023-05-29T10:30:49;86552.80;;;21.40
76394;BMP180;65216;51.090;-115.352;2023-05-29T10:36:21;86555.00;;;21.34
76394;BMP180;65216;51.090;-115.352;2023-05-29T10:38:53;86552.20;;;21.30
76394;BMP180;65216;51.090;-115.352;2023-05-29T10:44:03;86553.80;;;21.30
76394;BMP180;65216;51.090;-115.352;2023-05-29T10:49:21;86562.20;;;21.24
76394;BMP180;65216;51.090;-115.352;2023-05-29T10:51:51;86560.20;;;21.20
76394;BMP180;65216;51.090;-115.352;2023-05-29T10:54:26;86564.40;;;21.20
76394;BMP180;65216;51.090;-115.352;2023-05-29T10:56:57;86564.20;;;21.20
76394;BMP180;65216;51.090;-115.352;2023-05-29T10:59:27;86561.40;;;21.20
76394;BMP180;65216;51.090;-115.352;2023-05-29T11:01:56;86555.60;;;21.20
76394;BMP180;65216;51.090;-115.352;2023-05-29T11:06:54;86562.60;;;21.12
76394;BMP180;65216;51.090;-115.352;2023-05-29T11:09:35;86558.80;;;21.10
76394;BMP180;65216;51.090;-115.352;2023-05-29T11:12:25;86555.00;;;21.10
76394;BMP180;65216;51.090;-115.352;2023-05-29T11:15:09;86564.80;;;21.10
76394;BMP180;65216;51.090;-115.352;2023-05-29T11:20:36;86569.00;;;21.10
76394;BMP180;65216;51.090;-115.352;2023-05-29T11:23:07;86571.40;;;21.10
76394;BMP180;65216;51.090;-115.352;2023-05-29T11:25:37;86577.80;;;21.10
76394;BMP180;65216;51.090;-115.352;2023-05-29T11:28:05;86582.00;;;21.10
76394;BMP180;65216;51.090;-115.352;2023-05-29T11:30:49;86577.20;;;21.10
76394;BMP180;65216;51.090;-115.352;2023-05-29T11:33:26;86577.80;;;21.10
76394;BMP180;65216;51.090;-115.352;2023-05-29T11:36:00;86573.20;;;21.10
76394;BMP180;65216;51.090;-115.352;2023-05-29T11:38:28;86579.20;;;21.10
76394;BMP180;65216;51.090;-115.352;2023-05-29T11:40:56;86585.40;;;21.10
76394;BMP180;65216;51.090;-115.352;2023-05-29T11:43:25;86580.80;;;21.10
76394;BMP180;65216;51.090;-115.352;2023-05-29T11:45:52;86579.80;;;21.10
76394;BMP180;65216;51.090;-115.352;2023-05-29T11:48:19;86581.80;;;21.10
76394;BMP180;65216;51.090;-115.352;2023-05-29T11:50:47;86583.00;;;21.10
76394;BMP180;65216;51.090;-115.352;2023-05-29T11:53:14;86575.20;;;21.10
76394;BMP180;65216;51.090;-115.352;2023-05-29T11:55:44;86575.40;;;21.06
76394;BMP180;65216;51.090;-115.352;2023-05-29T11:58:11;86581.60;;;21.04
76394;BMP180;65216;51.090;-115.352;2023-05-29T12:00:39;86589.00;;;21.02
76394;BMP180;65216;51.090;-115.352;2023-05-29T12:03:07;86581.60;;;21.04
76394;BMP180;65216;51.090;-115.352;2023-05-29T12:05:48;86588.60;;;21.08
76394;BMP180;65216;51.090;-115.352;2023-05-29T12:08:16;86586.00;;;21.10
76394;BMP180;65216;51.090;-115.352;2023-05-29T12:10:52;86590.00;;;21.10
76394;BMP180;65216;51.090;-115.352;2023-05-29T12:13:20;86593.60;;;21.10
76394;BMP180;65216;51.090;-115.352;2023-05-29T12:15:52;86592.00;;;21.10
76394;BMP180;65216;51.090;-115.352;2023-05-29T12:18:20;86587.00;;;21.10
76394;BMP180;65216;51.090;-115.352;2023-05-29T12:20:50;86595.80;;;21.10
76394;BMP180;65216;51.090;-115.352;2023-05-29T12:23:19;86594.40;;;21.10
76394;BMP180;65216;51.090;-115.352;2023-05-29T12:25:47;86592.40;;;21.10
76394;BMP180;65216;51.090;-115.352;2023-05-29T12:28:17;86591.40;;;21.10
76394;BMP180;65216;51.090;-115.352;2023-05-29T12:30:49;86592.40;;;21.10
76394;BMP180;65216;51.090;-115.352;2023-05-29T12:33:31;86587.80;;;21.10
76394;BMP180;65216;51.090;-115.352;2023-05-29T12:36:09;86591.80;;;21.10
76394;BMP180;65216;51.090;-115.352;2023-05-29T12:38:51;86598.00;;;21.10
76394;BMP180;65216;51.090;-115.352;2023-05-29T12:41:30;86586.20;;;21.10
76394;BMP180;65216;51.090;-115.352;2023-05-29T12:44:03;86592.60;;;21.10
76394;BMP180;65216;51.090;-115.352;2023-05-29T12:46:42;86587.20;;;21.10
76394;BMP180;65216;51.090;-115.352;2023-05-29T12:49:17;86583.20;;;21.10
76394;BMP180;65216;51.090;-115.352;2023-05-29T12:51:52;86583.60;;;21.10
76394;BMP180;65216;51.090;-115.352;2023-05-29T12:54:19;86574.40;;;21.10
76394;BMP180;65216;51.090;-115.352;2023-05-29T12:56:45;86583.60;;;21.10
76394;BMP180;65216;51.090;-115.352;2023-05-29T12:59:13;86574.60;;;21.10
76394;BMP180;65216;51.090;-115.352;2023-05-29T13:01:40;86580.20;;;21.10
76394;BMP180;65216;51.090;-115.352;2023-05-29T13:04:07;86576.00;;;21.12
76394;BMP180;65216;51.090;-115.352;2023-05-29T13:06:37;86580.80;;;21.16
76394;BMP180;65216;51.090;-115.352;2023-05-29T13:09:04;86585.20;;;21.20
76394;BMP180;65216;51.090;-115.352;2023-05-29T13:11:33;86587.60;;;21.20
76394;BMP180;65216;51.090;-115.352;2023-05-29T13:14:00;86593.60;;;21.20
76394;BMP180;65216;51.090;-115.352;2023-05-29T13:16:30;86592.80;;;21.20
76394;BMP180;65216;51.090;-115.352;2023-05-29T13:18:57;86585.80;;;21.20
76394;BMP180;65216;51.090;-115.352;2023-05-29T13:21:24;86602.60;;;21.20
76394;BMP180;65216;51.090;-115.352;2023-05-29T13:23:54;86613.80;;;21.20
76394;BMP180;65216;51.090;-115.352;2023-05-29T13:26:21;86599.40;;;21.20
76394;BMP180;65216;51.090;-115.352;2023-05-29T13:28:48;86582.00;;;21.20
76394;BMP180;65216;51.090;-115.352;2023-05-29T13:31:18;86577.20;;;21.20
76394;BMP180;65216;51.090;-115.352;2023-05-29T13:33:47;86581.80;;;21.28
76394;BMP180;65216;51.090;-115.352;2023-05-29T13:36:14;86591.20;;;21.26
76394;BMP180;65216;51.090;-115.352;2023-05-29T13:38:41;86583.60;;;21.30
76394;BMP180;65216;51.090;-115.352;2023-05-29T13:41:08;86584.60;;;21.30
76394;BMP180;65216;51.090;-115.352;2023-05-29T13:43:35;86580.60;;;21.30
76394;BMP180;65216;51.090;-115.352;2023-05-29T13:46:05;86583.80;;;21.30
76394;BMP180;65216;51.090;-115.352;2023-05-29T13:48:32;86574.00;;;21.30
76394;BMP180;65216;51.090;-115.352;2023-05-29T13:51:20;86584.20;;;21.30
76394;BMP180;65216;51.090;-115.352;2023-05-29T13:53:47;86578.00;;;21.30
76394;BMP180;65216;51.090;-115.352;2023-05-29T13:56:14;86582.80;;;21.30
76394;BMP180;65216;51.090;-115.352;2023-05-29T13:58:43;86584.20;;;21.30
76394;BMP180;65216;51.090;-115.352;2023-05-29T14:01:11;86582.40;;;21.30
76394;BMP180;65216;51.090;-115.352;2023-05-29T14:03:41;86580.40;;;21.32
76394;BMP180;65216;51.090;-115.352;2023-05-29T14:06:08;86573.60;;;21.30
76394;BMP180;65216;51.090;-115.352;2023-05-29T14:08:51;86581.60;;;21.38
76394;BMP180;65216;51.090;-115.352;2023-05-29T14:11:37;86568.80;;;21.40